createdAt,value
2018-07-23T00:00:41.612Z,4.87
2018-07-23T00:01:45.020Z,4.70
2018-07-23T00:02:48.508Z,5.37
2018-07-23T00:03:51.884Z,5.27
2018-07-23T00:04:55.273Z,5.03
2018-07-23T00:05:58.681Z,5.00
2018-07-23T00:07:02.079Z,5.27
2018-07-23T00:08:05.525Z,4.50
2018-07-23T00:09:09.117Z,4.80
2018-07-23T00:10:12.518Z,5.13
2018-07-23T00:11:15.910Z,5.40
2018-07-23T00:12:19.350Z,5.10
2018-07-23T00:13:22.744Z,4.57
2018-07-23T00:14:26.144Z,4.63
2018-07-23T00:15:29.566Z,5.20
2018-07-23T00:16:32.946Z,4.93
2018-07-23T00:17:36.379Z,4.77
2018-07-23T00:18:39.778Z,5.07
2018-07-23T00:19:43.197Z,5.50
2018-07-23T00:20:46.617Z,4.97
2018-07-23T00:21:50.014Z,4.73
2018-07-23T00:22:53.427Z,5.03
2018-07-23T00:23:56.840Z,4.80
2018-07-23T00:25:00.232Z,4.93
2018-07-23T00:26:03.651Z,4.90
2018-07-23T00:27:07.153Z,4.47
2018-07-23T00:28:10.552Z,4.80
2018-07-23T00:29:13.974Z,4.90
2018-07-23T00:30:17.400Z,5.20
2018-07-23T00:31:20.843Z,4.27
2018-07-23T00:32:24.225Z,5.27
2018-07-23T00:33:27.594Z,5.13
2018-07-23T00:34:30.976Z,4.60
2018-07-23T00:35:34.394Z,4.63
2018-07-23T00:36:37.803Z,4.87
2018-07-23T00:37:41.219Z,5.03
2018-07-23T00:38:44.629Z,4.43
2018-07-23T00:39:48.036Z,5.40
2018-07-23T00:40:51.439Z,4.90
2018-07-23T00:41:54.871Z,4.83
2018-07-23T00:42:58.294Z,4.57
2018-07-23T00:44:01.693Z,4.60
2018-07-23T00:45:05.153Z,4.50
2018-07-23T00:46:08.572Z,4.63
2018-07-23T00:47:12.089Z,4.97
2018-07-23T00:48:15.469Z,4.30
2018-07-23T00:49:18.857Z,4.53
2018-07-23T00:50:22.242Z,4.77
2018-07-23T00:51:25.720Z,4.97
2018-07-23T00:52:29.152Z,4.80
2018-07-23T00:53:32.538Z,4.53
2018-07-23T00:54:35.925Z,4.40
2018-07-23T00:55:39.320Z,4.77
2018-07-23T00:56:42.712Z,4.63
2018-07-23T00:57:46.117Z,4.83
2018-07-23T00:58:49.518Z,4.50
2018-07-23T00:59:52.908Z,4.50
2018-07-23T01:00:56.318Z,4.43
2018-07-23T01:01:59.713Z,5.20
2018-07-23T01:03:05.965Z,4.83
2018-07-23T01:04:09.388Z,4.97
2018-07-23T01:05:12.780Z,4.30
2018-07-23T01:06:16.173Z,4.70
2018-07-23T01:07:19.588Z,4.30
2018-07-23T01:08:22.995Z,4.60
2018-07-23T01:09:26.408Z,5.27
2018-07-23T01:10:29.840Z,4.10
2018-07-23T01:11:33.260Z,5.93
2018-07-23T01:12:36.652Z,4.60
2018-07-23T01:13:40.082Z,4.53
2018-07-23T01:14:43.507Z,4.50
2018-07-23T01:15:46.909Z,4.70
2018-07-23T01:16:50.290Z,4.40
2018-07-23T01:17:53.716Z,4.70
2018-07-23T01:18:57.152Z,4.30
2018-07-23T01:20:00.832Z,4.90
2018-07-23T01:21:04.263Z,4.00
2018-07-23T01:22:07.661Z,4.20
2018-07-23T01:23:11.034Z,4.60
2018-07-23T01:24:14.444Z,4.17
2018-07-23T01:25:17.851Z,4.43
2018-07-23T01:26:21.284Z,4.30
2018-07-23T01:27:24.921Z,4.03
2018-07-23T01:28:28.354Z,4.57
2018-07-23T01:29:31.824Z,4.30
2018-07-23T01:30:35.240Z,4.63
2018-07-23T01:31:38.624Z,4.50
2018-07-23T01:32:42.030Z,4.57
2018-07-23T01:33:45.454Z,4.60
2018-07-23T01:34:48.918Z,4.53
2018-07-23T01:35:52.320Z,4.60
2018-07-23T01:36:55.709Z,4.17
2018-07-23T01:37:59.108Z,4.70
2018-07-23T01:39:02.537Z,4.30
2018-07-23T01:40:06.086Z,4.50
2018-07-23T01:41:09.465Z,4.60
2018-07-23T01:42:13.043Z,4.33
2018-07-23T01:43:16.440Z,4.50
2018-07-23T01:44:19.828Z,5.30
2018-07-23T01:45:23.279Z,4.50
2018-07-23T01:46:26.687Z,4.10
2018-07-23T01:47:30.073Z,3.90
2018-07-23T01:48:33.464Z,4.40
2018-07-23T01:49:36.870Z,4.03
2018-07-23T01:50:40.279Z,4.60
2018-07-23T01:51:43.668Z,4.27
2018-07-23T01:52:47.093Z,4.20
2018-07-23T01:53:50.513Z,4.33
2018-07-23T01:54:53.913Z,5.00
2018-07-23T01:55:57.414Z,4.67
2018-07-23T01:57:00.844Z,4.17
2018-07-23T01:58:04.232Z,4.30
2018-07-23T01:59:07.637Z,4.17
2018-07-23T02:00:11.116Z,4.57
2018-07-23T02:01:14.578Z,4.90
2018-07-23T02:02:17.976Z,4.43
2018-07-23T02:03:21.532Z,4.40
2018-07-23T02:04:24.979Z,4.37
2018-07-23T02:05:28.385Z,4.23
2018-07-23T02:06:31.799Z,4.50
2018-07-23T02:07:35.265Z,3.97
2018-07-23T02:08:38.728Z,4.00
2018-07-23T02:09:42.140Z,4.20
2018-07-23T02:10:45.566Z,3.80
2018-07-23T02:11:48.965Z,4.30
2018-07-23T02:12:52.475Z,4.20
2018-07-23T02:13:55.866Z,3.97
2018-07-23T02:14:59.269Z,4.27
2018-07-23T02:16:02.689Z,3.87
2018-07-23T02:17:06.399Z,4.10
2018-07-23T02:18:09.849Z,4.50
2018-07-23T02:19:13.268Z,4.20
2018-07-23T02:20:16.654Z,4.00
2018-07-23T02:21:20.071Z,4.17
2018-07-23T02:22:23.516Z,4.40
2018-07-23T02:23:26.932Z,4.23
2018-07-23T02:24:30.315Z,4.20
2018-07-23T02:25:33.788Z,4.50
2018-07-23T02:26:37.207Z,4.67
2018-07-23T02:27:40.605Z,4.10
2018-07-23T02:28:43.989Z,4.43
2018-07-23T02:29:47.408Z,4.37
2018-07-23T02:30:50.838Z,4.13
2018-07-23T02:31:54.225Z,3.80
2018-07-23T02:32:57.627Z,4.20
2018-07-23T02:34:01.028Z,3.80
2018-07-23T02:35:04.530Z,4.63
2018-07-23T02:36:08.121Z,4.30
2018-07-23T02:37:11.531Z,3.87
2018-07-23T02:38:14.937Z,4.17
2018-07-23T02:39:18.349Z,3.80
2018-07-23T02:40:21.726Z,3.93
2018-07-23T02:41:25.133Z,3.80
2018-07-23T02:42:28.561Z,3.60
2018-07-23T02:43:31.970Z,4.10
2018-07-23T02:44:35.455Z,4.30
2018-07-23T02:45:39.024Z,4.30
2018-07-23T02:46:42.486Z,4.37
2018-07-23T02:47:45.872Z,3.87
2018-07-23T02:48:49.283Z,4.07
2018-07-23T02:49:52.693Z,4.07
2018-07-23T02:50:56.069Z,3.67
2018-07-23T02:51:59.469Z,3.93
2018-07-23T02:53:02.876Z,4.00
2018-07-23T02:54:06.339Z,4.07
2018-07-23T02:55:09.786Z,3.73
2018-07-23T02:56:13.209Z,4.10
2018-07-23T02:57:16.604Z,3.80
2018-07-23T02:58:20.000Z,3.63
2018-07-23T02:59:23.403Z,4.17
2018-07-23T03:00:26.794Z,4.00
2018-07-23T03:01:30.177Z,4.47
2018-07-23T03:02:33.617Z,4.13
2018-07-23T03:03:37.033Z,4.00
2018-07-23T03:04:40.471Z,4.30
2018-07-23T03:05:43.864Z,4.27
2018-07-23T03:06:47.257Z,3.83
2018-07-23T03:07:50.643Z,3.70
2018-07-23T03:08:54.056Z,3.90
2018-07-23T03:09:57.488Z,3.80
2018-07-23T03:11:01.083Z,3.70
2018-07-23T03:12:04.520Z,4.10
2018-07-23T03:13:08.331Z,4.13
2018-07-23T03:14:11.714Z,3.60
2018-07-23T03:15:15.398Z,4.13
2018-07-23T03:16:19.473Z,4.23
2018-07-23T03:17:22.918Z,3.93
2018-07-23T03:18:26.294Z,4.30
2018-07-23T03:19:29.696Z,4.53
2018-07-23T03:20:33.345Z,3.63
2018-07-23T03:21:36.795Z,3.77
2018-07-23T03:22:40.180Z,3.50
2018-07-23T03:23:43.603Z,3.90
2018-07-23T03:24:47.017Z,3.73
2018-07-23T03:25:50.455Z,4.50
2018-07-23T03:26:53.874Z,4.13
2018-07-23T03:27:57.242Z,3.80
2018-07-23T03:29:00.626Z,4.03
2018-07-23T03:30:04.505Z,4.30
2018-07-23T03:31:08.178Z,3.57
2018-07-23T03:32:11.568Z,4.10
2018-07-23T03:33:14.976Z,4.20
2018-07-23T03:34:18.447Z,3.83
2018-07-23T03:35:21.885Z,3.53
2018-07-23T03:36:25.312Z,4.00
2018-07-23T03:37:28.716Z,3.67
2018-07-23T03:38:32.140Z,3.97
2018-07-23T03:39:35.505Z,3.70
2018-07-23T03:40:38.921Z,3.93
2018-07-23T03:41:42.435Z,4.10
2018-07-23T03:42:45.855Z,4.03
2018-07-23T03:43:49.246Z,3.77
2018-07-23T03:44:52.680Z,3.60
2018-07-23T03:45:56.076Z,3.63
2018-07-23T03:46:59.572Z,3.33
2018-07-23T03:48:02.989Z,3.73
2018-07-23T03:49:06.932Z,3.50
2018-07-23T03:50:10.355Z,3.70
2018-07-23T03:51:13.774Z,3.80
2018-07-23T03:52:17.226Z,3.80
2018-07-23T03:53:20.648Z,4.07
2018-07-23T03:54:24.071Z,3.77
2018-07-23T03:55:27.438Z,3.83
2018-07-23T03:56:30.863Z,3.97
2018-07-23T03:57:34.304Z,3.70
2018-07-23T03:58:37.820Z,3.53
2018-07-23T03:59:41.224Z,4.03
2018-07-23T04:00:44.624Z,4.03
2018-07-23T04:01:48.061Z,3.70
2018-07-23T04:02:51.473Z,4.00
2018-07-23T04:03:54.884Z,3.87
2018-07-23T04:04:58.306Z,3.80
2018-07-23T04:06:01.738Z,3.53
2018-07-23T04:07:05.184Z,4.10
2018-07-23T04:08:08.600Z,3.50
2018-07-23T04:09:11.994Z,3.67
2018-07-23T04:10:15.415Z,3.97
2018-07-23T04:11:18.804Z,3.80
2018-07-23T04:12:22.224Z,3.73
2018-07-23T04:13:25.637Z,3.70
2018-07-23T04:14:29.348Z,4.13
2018-07-23T04:15:32.771Z,3.70
2018-07-23T04:16:36.252Z,3.37
2018-07-23T04:17:39.623Z,4.00
2018-07-23T04:18:43.044Z,3.97
2018-07-23T04:19:46.443Z,3.63
2018-07-23T04:20:49.849Z,4.03
2018-07-23T04:21:53.274Z,4.40
2018-07-23T04:22:56.662Z,3.47
2018-07-23T04:24:00.088Z,3.50
2018-07-23T04:25:03.510Z,3.73
2018-07-23T04:26:06.930Z,3.57
2018-07-23T04:27:10.458Z,4.00
2018-07-23T04:28:13.833Z,3.77
2018-07-23T04:29:17.229Z,3.63
2018-07-23T04:30:20.671Z,3.60
2018-07-23T04:31:24.057Z,3.80
2018-07-23T04:32:27.472Z,4.07
2018-07-23T04:33:30.869Z,3.50
2018-07-23T04:34:34.293Z,3.97
2018-07-23T04:35:37.711Z,3.87
2018-07-23T04:36:41.107Z,3.80
2018-07-23T04:37:44.541Z,3.60
2018-07-23T04:38:47.922Z,3.40
2018-07-23T04:39:51.368Z,3.50
2018-07-23T04:40:54.786Z,3.50
2018-07-23T04:41:58.215Z,4.10
2018-07-23T04:43:01.618Z,3.70
2018-07-23T04:44:05.034Z,3.43
2018-07-23T04:45:08.458Z,3.40
2018-07-23T04:46:11.850Z,3.90
2018-07-23T04:47:15.257Z,3.70
2018-07-23T04:48:18.645Z,3.20
2018-07-23T04:49:22.084Z,3.70
2018-07-23T04:50:25.511Z,3.60
2018-07-23T04:51:28.932Z,3.30
2018-07-23T04:52:32.344Z,3.90
2018-07-23T04:53:35.783Z,4.20
2018-07-23T04:54:39.159Z,3.77
2018-07-23T04:55:42.555Z,3.70
2018-07-23T04:56:45.956Z,3.50
2018-07-23T04:57:49.340Z,4.10
2018-07-23T04:58:52.756Z,3.90
2018-07-23T04:59:56.148Z,3.50
2018-07-23T05:00:59.603Z,3.63
2018-07-23T05:02:03.023Z,3.80
2018-07-23T05:03:06.452Z,3.53
2018-07-23T05:04:09.871Z,3.77
2018-07-23T05:05:13.248Z,3.87
2018-07-23T05:06:16.649Z,3.97
2018-07-23T05:07:20.156Z,3.40
2018-07-23T05:08:23.587Z,3.93
2018-07-23T05:09:26.994Z,3.63
2018-07-23T05:10:30.418Z,3.77
2018-07-23T05:11:33.865Z,3.53
2018-07-23T05:12:37.302Z,4.20
2018-07-23T05:13:40.739Z,3.80
2018-07-23T05:14:44.138Z,3.40
2018-07-23T05:15:47.551Z,3.43
2018-07-23T05:16:50.975Z,3.63
2018-07-23T05:17:54.401Z,3.50
2018-07-23T05:18:57.832Z,3.63
2018-07-23T05:20:01.218Z,4.87
2018-07-23T05:21:04.635Z,4.83
2018-07-23T05:22:08.110Z,5.47
2018-07-23T05:23:11.567Z,5.27
2018-07-23T05:24:14.982Z,5.40
2018-07-23T05:25:18.388Z,6.20
2018-07-23T05:26:21.785Z,4.93
2018-07-23T05:27:25.282Z,5.50
2018-07-23T05:28:28.864Z,5.60
2018-07-23T05:29:32.260Z,5.90
2018-07-23T05:30:35.717Z,5.80
2018-07-23T05:31:39.241Z,5.90
2018-07-23T05:32:42.660Z,17.63
2018-07-23T05:33:46.072Z,13.23
2018-07-23T05:34:49.458Z,13.00
2018-07-23T05:35:52.872Z,11.20
2018-07-23T05:36:56.783Z,10.00
2018-07-23T05:38:00.228Z,9.83
2018-07-23T05:39:04.100Z,7.80
2018-07-23T05:40:07.727Z,7.53
2018-07-23T05:41:11.255Z,6.37
2018-07-23T05:42:14.786Z,6.27
2018-07-23T05:43:18.528Z,6.00
2018-07-23T05:44:22.332Z,6.13
2018-07-23T05:45:25.737Z,7.03
2018-07-23T05:46:29.176Z,6.80
2018-07-23T05:47:32.545Z,6.50
2018-07-23T05:48:35.994Z,7.13
2018-07-23T05:49:39.444Z,7.03
2018-07-23T05:50:42.838Z,6.77
2018-07-23T05:51:46.251Z,8.07
2018-07-23T05:52:49.660Z,7.63
2018-07-23T05:53:53.080Z,7.73
2018-07-23T05:54:56.685Z,7.80
2018-07-23T05:56:00.081Z,7.60
2018-07-23T05:57:03.470Z,8.00
2018-07-23T05:58:07.075Z,7.77
2018-07-23T05:59:10.531Z,8.27
2018-07-23T06:00:14.261Z,8.80
2018-07-23T06:01:17.778Z,9.37
2018-07-23T06:02:21.177Z,8.87
2018-07-23T06:03:24.693Z,9.30
2018-07-23T06:04:28.143Z,9.00
2018-07-23T06:05:31.552Z,8.63
2018-07-23T06:06:34.998Z,8.47
2018-07-23T06:07:38.441Z,9.60
2018-07-23T06:08:41.859Z,9.50
2018-07-23T06:09:45.288Z,9.10
2018-07-23T06:10:48.752Z,8.87
2018-07-23T06:11:52.286Z,8.40
2018-07-23T06:12:56.222Z,8.53
2018-07-23T06:13:59.638Z,9.20
2018-07-23T06:15:03.096Z,8.73
2018-07-23T06:16:06.656Z,8.40
2018-07-23T06:17:10.069Z,8.03
2018-07-23T06:18:13.478Z,8.23
2018-07-23T06:19:16.896Z,7.50
2018-07-23T06:20:20.368Z,8.30
2018-07-23T06:21:23.857Z,8.43
2018-07-23T06:22:27.327Z,8.03
2018-07-23T06:23:30.791Z,7.27
2018-07-23T06:24:34.286Z,7.73
2018-07-23T06:25:37.800Z,8.80
2018-07-23T06:26:41.268Z,8.47
2018-07-23T06:27:44.672Z,8.10
2018-07-23T06:28:48.065Z,8.20
2018-07-23T06:29:51.474Z,7.90
2018-07-23T06:30:54.900Z,7.77
2018-07-23T06:31:58.757Z,7.90
2018-07-23T06:33:02.177Z,9.20
2018-07-23T06:34:05.643Z,9.10
2018-07-23T06:35:09.179Z,8.67
2018-07-23T06:36:12.764Z,7.90
2018-07-23T06:37:16.172Z,8.80
2018-07-23T06:38:19.638Z,7.67
2018-07-23T06:39:23.052Z,8.73
2018-07-23T06:40:26.480Z,8.20
2018-07-23T06:41:30.014Z,8.77
2018-07-23T06:42:33.526Z,7.93
2018-07-23T06:43:37.104Z,9.67
2018-07-23T06:44:40.585Z,8.80
2018-07-23T06:45:44.019Z,9.17
2018-07-23T06:46:47.724Z,8.43
2018-07-23T06:47:51.136Z,8.40
2018-07-23T06:48:54.514Z,8.40
2018-07-23T06:49:57.919Z,9.20
2018-07-23T06:51:02.337Z,8.50
2018-07-23T06:52:05.818Z,8.33
2018-07-23T06:53:09.294Z,8.90
2018-07-23T06:54:12.743Z,8.13
2018-07-23T06:55:17.783Z,7.90
2018-07-23T06:56:24.354Z,8.17
2018-07-23T06:57:28.177Z,8.60
2018-07-23T06:58:31.772Z,8.83
2018-07-23T06:59:36.346Z,8.80
2018-07-23T07:00:40.185Z,9.07
2018-07-23T07:01:44.559Z,8.17
2018-07-23T07:02:48.110Z,8.60
2018-07-23T07:03:51.540Z,8.13
2018-07-23T07:04:54.960Z,8.40
2018-07-23T07:05:58.445Z,9.73
2018-07-23T07:07:01.942Z,8.33
2018-07-23T07:08:05.807Z,9.10
2018-07-23T07:09:10.385Z,8.57
2018-07-23T07:10:13.788Z,8.87
2018-07-23T07:11:23.533Z,8.70
2018-07-23T07:12:27.068Z,8.40
2018-07-23T07:13:30.605Z,8.60
2018-07-23T07:14:34.027Z,8.30
2018-07-23T07:15:37.506Z,8.10
2018-07-23T07:16:40.924Z,7.70
2018-07-23T07:17:44.716Z,7.37
2018-07-23T07:18:48.137Z,8.10
2018-07-23T07:19:51.933Z,8.23
2018-07-23T07:20:55.380Z,8.10
2018-07-23T07:21:58.782Z,7.83
2018-07-23T07:23:02.578Z,8.03
2018-07-23T07:24:06.347Z,6.60
2018-07-23T07:25:09.773Z,6.43
2018-07-23T07:26:13.169Z,6.83
2018-07-23T07:27:16.871Z,6.37
2018-07-23T07:28:21.608Z,6.73
2018-07-23T07:29:25.040Z,6.17
2018-07-23T07:30:28.435Z,6.00
2018-07-23T07:31:31.857Z,6.80
2018-07-23T07:32:35.296Z,5.63
2018-07-23T07:33:38.691Z,6.47
2018-07-23T07:34:42.272Z,6.20
2018-07-23T07:35:45.700Z,6.83
2018-07-23T07:36:49.124Z,6.40
2018-07-23T07:37:52.600Z,5.90
2018-07-23T07:38:56.010Z,6.33
2018-07-23T07:39:59.453Z,7.30
2018-07-23T07:41:02.884Z,5.80
2018-07-23T07:42:06.582Z,6.00
2018-07-23T07:43:10.039Z,6.07
2018-07-23T07:44:13.455Z,6.20
2018-07-23T07:45:17.078Z,5.90
2018-07-23T07:46:20.614Z,5.87
2018-07-23T07:47:24.017Z,6.60
2018-07-23T07:48:27.550Z,5.70
2018-07-23T07:49:30.998Z,5.90
2018-07-23T07:52:02.485Z,6.60
2018-07-23T07:53:05.885Z,5.40
2018-07-23T07:54:09.595Z,5.40
2018-07-23T07:55:13.021Z,6.50
2018-07-23T07:56:16.452Z,5.50
2018-07-23T07:57:19.901Z,5.37
2018-07-23T07:58:23.319Z,5.50
2018-07-23T07:59:26.727Z,5.93
2018-07-23T08:00:30.138Z,4.80
2018-07-23T08:01:33.578Z,5.43
2018-07-23T08:02:36.990Z,4.97
2018-07-23T08:03:40.480Z,5.60
2018-07-23T08:04:43.930Z,5.50
2018-07-23T08:05:47.361Z,5.00
2018-07-23T08:06:50.781Z,5.50
2018-07-23T08:07:54.247Z,5.13
2018-07-23T08:08:57.661Z,5.27
2018-07-23T08:10:01.083Z,5.07
2018-07-23T08:11:04.540Z,5.80
2018-07-23T08:12:08.307Z,5.37
2018-07-23T08:13:11.694Z,5.40
2018-07-23T08:14:15.137Z,5.60
2018-07-23T08:15:18.558Z,5.30
2018-07-23T08:16:21.960Z,5.77
2018-07-23T08:17:25.450Z,5.60
2018-07-23T08:18:28.912Z,5.33
2018-07-23T08:19:32.465Z,6.57
2018-07-23T08:20:35.975Z,5.50
2018-07-23T08:21:39.672Z,5.37
2018-07-23T08:22:43.144Z,5.67
2018-07-23T08:23:46.549Z,5.10
2018-07-23T08:24:50.010Z,5.93
2018-07-23T08:25:53.419Z,5.33
2018-07-23T08:26:56.866Z,5.20
2018-07-23T08:28:00.321Z,5.60
2018-07-23T08:29:03.843Z,5.73
2018-07-23T08:30:07.608Z,5.60
2018-07-23T08:31:11.012Z,5.90
2018-07-23T08:32:14.434Z,5.00
2018-07-23T08:33:17.964Z,5.10
2018-07-23T08:34:21.382Z,4.90
2018-07-23T08:35:24.797Z,5.43
2018-07-23T08:36:28.234Z,5.60
2018-07-23T08:37:31.620Z,5.27
2018-07-23T08:38:35.127Z,5.20
2018-07-23T08:39:38.548Z,5.70
2018-07-23T08:40:42.122Z,5.73
2018-07-23T08:41:45.579Z,5.77
2018-07-23T08:42:49.010Z,5.83
2018-07-23T08:43:52.481Z,5.43
2018-07-23T08:44:56.670Z,5.50
2018-07-23T08:46:00.085Z,5.57
2018-07-23T08:47:03.516Z,5.40
2018-07-23T08:48:07.178Z,5.13
2018-07-23T08:49:10.624Z,5.30
2018-07-23T08:50:14.025Z,5.90
2018-07-23T08:51:17.460Z,5.40
2018-07-23T08:52:20.836Z,5.57
2018-07-23T08:53:24.607Z,5.03
2018-07-23T08:54:28.589Z,5.17
2018-07-23T08:55:32.041Z,6.00
2018-07-23T08:56:35.426Z,5.10
2018-07-23T08:57:38.870Z,5.40
2018-07-23T08:58:42.262Z,5.67
2018-07-23T08:59:45.680Z,5.53
2018-07-23T09:00:49.364Z,5.87
2018-07-23T09:01:52.767Z,5.57
2018-07-23T09:02:56.187Z,5.20
2018-07-23T09:03:59.597Z,5.23
2018-07-23T09:05:03.020Z,6.10
2018-07-23T09:06:07.239Z,5.30
2018-07-23T09:07:10.634Z,4.80
2018-07-23T09:08:14.152Z,5.07
2018-07-23T09:09:17.574Z,5.80
2018-07-23T09:10:21.018Z,5.77
2018-07-23T09:11:24.464Z,5.40
2018-07-23T09:12:28.157Z,5.40
2018-07-23T09:13:31.587Z,5.73
2018-07-23T09:14:34.982Z,6.77
2018-07-23T09:15:38.417Z,5.90
2018-07-23T09:16:41.869Z,5.70
2018-07-23T09:17:45.399Z,6.13
2018-07-23T09:18:48.795Z,5.70
2018-07-23T09:19:52.320Z,5.93
2018-07-23T09:20:55.959Z,5.40
2018-07-23T09:21:59.455Z,5.70
2018-07-23T09:23:02.891Z,5.47
2018-07-23T09:24:06.349Z,5.37
2018-07-23T09:25:09.767Z,5.43
2018-07-23T09:26:13.589Z,5.27
2018-07-23T09:27:17.254Z,5.50
2018-07-23T09:28:20.964Z,5.10
2018-07-23T09:29:24.362Z,5.03
2018-07-23T09:30:33.085Z,5.43
2018-07-23T09:31:37.224Z,5.53
2018-07-23T09:32:40.667Z,5.40
2018-07-23T09:33:45.089Z,5.00
2018-07-23T09:34:48.756Z,5.70
2018-07-23T09:35:52.943Z,5.17
2018-07-23T09:36:57.167Z,4.60
2018-07-23T09:38:01.363Z,5.20
2018-07-23T09:39:08.170Z,5.27
2018-07-23T09:40:11.605Z,5.53
2018-07-23T09:41:15.072Z,5.30
2018-07-23T09:42:18.750Z,5.23
2018-07-23T09:43:22.202Z,5.23
2018-07-23T09:44:25.924Z,5.30
2018-07-23T09:45:29.713Z,4.67
2018-07-23T09:46:33.132Z,4.83
2018-07-23T09:47:36.733Z,5.33
2018-07-23T09:48:40.240Z,5.10
2018-07-23T09:49:43.919Z,5.00
2018-07-23T09:50:47.541Z,5.27
2018-07-23T09:51:51.068Z,5.40
2018-07-23T09:52:54.904Z,4.70
2018-07-23T09:53:58.354Z,4.93
2018-07-23T09:55:01.810Z,5.83
2018-07-23T09:56:05.309Z,5.00
2018-07-23T09:57:08.724Z,5.20
2018-07-23T09:58:12.163Z,4.97
2018-07-23T09:59:15.562Z,5.20
2018-07-23T10:00:24.353Z,4.77
2018-07-23T10:01:27.884Z,4.83
2018-07-23T10:02:31.312Z,4.90
2018-07-23T10:03:34.819Z,4.77
2018-07-23T10:04:38.240Z,5.30
2018-07-23T10:05:41.708Z,4.70
2018-07-23T10:06:45.138Z,4.43
2018-07-23T10:07:48.535Z,5.20
2018-07-23T10:08:51.970Z,5.20
2018-07-23T10:09:55.384Z,4.97
2018-07-23T10:10:58.849Z,5.10
2018-07-23T10:12:02.296Z,5.47
2018-07-23T10:13:05.757Z,5.30
2018-07-23T10:14:09.882Z,4.70
2018-07-23T10:15:13.427Z,5.07
2018-07-23T10:16:17.388Z,5.03
2018-07-23T10:17:20.935Z,5.33
2018-07-23T10:18:24.349Z,5.07
2018-07-23T10:19:27.761Z,4.80
2018-07-23T10:20:31.150Z,5.00
2018-07-23T10:21:34.538Z,5.23
2018-07-23T10:22:37.930Z,5.10
2018-07-23T10:23:41.328Z,5.20
2018-07-23T10:24:44.756Z,4.80
2018-07-23T10:25:48.213Z,5.23
2018-07-23T10:26:51.644Z,4.80
2018-07-23T10:27:55.057Z,5.00
2018-07-23T10:28:58.496Z,5.00
2018-07-23T10:30:03.838Z,4.57
2018-07-23T10:31:08.949Z,4.80
2018-07-23T10:32:12.934Z,4.47
2018-07-23T10:33:16.459Z,4.80
2018-07-23T10:34:19.925Z,4.70
2018-07-23T10:35:23.360Z,4.77
2018-07-23T10:36:26.897Z,4.70
2018-07-23T10:37:30.426Z,4.77
2018-07-23T10:38:33.850Z,4.97
2018-07-23T10:39:37.254Z,5.00
2018-07-23T10:40:40.683Z,5.83
2018-07-23T10:41:44.098Z,4.90
2018-07-23T10:42:47.846Z,5.37
2018-07-23T10:43:51.275Z,5.33
2018-07-23T10:44:55.304Z,5.90
2018-07-23T10:45:58.732Z,5.20
2018-07-23T10:47:05.682Z,5.50
2018-07-23T10:48:09.122Z,4.50
2018-07-23T10:49:12.545Z,5.30
2018-07-23T10:50:16.290Z,4.80
2018-07-23T10:51:19.983Z,5.20
2018-07-23T10:52:23.871Z,4.80
2018-07-23T10:53:27.569Z,5.60
2018-07-23T10:54:30.980Z,5.20
2018-07-23T10:55:34.420Z,5.57
2018-07-23T10:56:37.998Z,5.47
2018-07-23T10:57:41.393Z,5.40
2018-07-23T10:58:44.819Z,4.93
2018-07-23T10:59:48.242Z,4.60
2018-07-23T11:00:51.801Z,4.70
2018-07-23T11:01:55.309Z,4.70
2018-07-23T11:02:58.742Z,4.87
2018-07-23T11:04:02.163Z,4.73
2018-07-23T11:05:06.480Z,5.43
2018-07-23T11:06:09.907Z,4.97
2018-07-23T11:07:13.361Z,5.00
2018-07-23T11:08:16.815Z,5.00
2018-07-23T11:09:20.263Z,5.90
2018-07-23T11:10:23.777Z,5.00
2018-07-23T11:11:27.232Z,5.17
2018-07-23T11:12:30.647Z,5.33
2018-07-23T11:13:34.048Z,5.20
2018-07-23T11:14:37.491Z,5.00
2018-07-23T11:15:40.916Z,5.30
2018-07-23T11:16:44.305Z,4.70
2018-07-23T11:17:47.741Z,5.10
2018-07-23T11:18:51.183Z,5.50
2018-07-23T11:19:54.601Z,5.10
2018-07-23T11:20:58.027Z,5.53
2018-07-23T11:22:01.412Z,4.97
2018-07-23T11:23:05.068Z,5.30
2018-07-23T11:24:08.508Z,5.00
2018-07-23T11:25:39.876Z,4.70
2018-07-23T11:26:15.538Z,4.90
2018-07-23T11:27:18.888Z,5.33
2018-07-23T11:28:22.313Z,5.03
2018-07-23T11:29:25.766Z,5.10
2018-07-23T11:30:29.150Z,4.83
2018-07-23T11:31:32.596Z,5.47
2018-07-23T11:32:36.591Z,4.37
2018-07-23T11:33:40.039Z,4.83
2018-07-23T11:34:43.472Z,4.87
2018-07-23T11:35:46.871Z,5.13
2018-07-23T11:36:50.320Z,5.33
2018-07-23T11:37:53.760Z,5.20
2018-07-23T11:38:57.232Z,5.37
2018-07-23T11:40:00.671Z,5.20
2018-07-23T11:41:04.097Z,4.93
2018-07-23T11:42:07.584Z,4.57
2018-07-23T11:43:11.008Z,5.10
2018-07-23T11:44:14.460Z,5.37
2018-07-23T11:45:17.910Z,4.60
2018-07-23T11:46:24.984Z,4.93
2018-07-23T11:47:24.874Z,5.23
2018-07-23T11:48:28.260Z,5.27
2018-07-23T11:49:31.657Z,4.83
2018-07-23T11:50:35.785Z,4.80
2018-07-23T11:51:39.186Z,4.67
2018-07-23T11:52:42.612Z,5.00
2018-07-23T11:53:46.115Z,5.03
2018-07-23T11:54:49.522Z,5.10
2018-07-23T11:55:53.061Z,4.60
2018-07-23T11:56:56.529Z,5.47
2018-07-23T11:57:59.913Z,4.77
2018-07-23T11:59:03.337Z,4.87
2018-07-23T12:00:06.819Z,4.73
2018-07-23T12:01:10.247Z,4.90
2018-07-23T12:02:14.625Z,5.17
2018-07-23T12:03:18.041Z,4.70
2018-07-23T12:04:21.485Z,4.73
2018-07-23T12:05:24.911Z,4.73
2018-07-23T12:06:28.340Z,5.40
2018-07-23T12:07:31.765Z,4.97
2018-07-23T12:08:35.188Z,4.20
2018-07-23T12:09:38.610Z,4.70
2018-07-23T12:10:42.469Z,5.27
2018-07-23T12:11:45.985Z,5.10
2018-07-23T12:12:50.139Z,4.50
2018-07-23T12:13:53.531Z,5.40
2018-07-23T12:14:56.952Z,4.67
2018-07-23T12:16:00.362Z,5.20
2018-07-23T12:17:03.815Z,4.70
2018-07-23T12:18:07.246Z,5.03
2018-07-23T12:19:10.697Z,4.63
2018-07-23T12:20:14.125Z,4.60
2018-07-23T12:21:17.586Z,5.13
2018-07-23T12:22:21.008Z,4.90
2018-07-23T12:23:25.387Z,5.10
2018-07-23T12:24:28.794Z,5.37
2018-07-23T12:25:32.195Z,4.97
2018-07-23T12:26:35.635Z,4.93
2018-07-23T12:27:39.060Z,5.20
2018-07-23T12:28:42.494Z,4.73
2018-07-23T12:29:45.910Z,5.10
2018-07-23T12:30:49.387Z,4.80
2018-07-23T12:31:52.813Z,5.37
2018-07-23T12:32:56.210Z,5.07
2018-07-23T12:33:59.753Z,5.77
2018-07-23T12:35:03.195Z,5.10
2018-07-23T12:36:07.141Z,5.70
2018-07-23T12:37:10.615Z,5.33
2018-07-23T12:38:14.056Z,5.63
2018-07-23T12:39:18.160Z,5.30
2018-07-23T12:40:21.714Z,5.10
2018-07-23T12:41:25.138Z,5.10
2018-07-23T12:42:28.591Z,5.90
2018-07-23T12:43:32.107Z,5.50
2018-07-23T12:44:35.551Z,5.63
2018-07-23T12:45:38.969Z,5.00
2018-07-23T12:46:42.386Z,5.10
2018-07-23T12:47:46.011Z,5.17
2018-07-23T12:48:49.428Z,5.70
2018-07-23T12:49:52.840Z,6.20
2018-07-23T12:50:57.146Z,5.60
2018-07-23T12:52:00.552Z,5.73
2018-07-23T12:53:06.065Z,5.87
2018-07-23T12:54:09.674Z,5.50
2018-07-23T12:55:14.189Z,5.47
2018-07-23T12:56:17.673Z,5.30
2018-07-23T12:57:21.090Z,5.70
2018-07-23T12:58:25.405Z,5.67
2018-07-23T12:59:28.803Z,6.00
2018-07-23T13:00:32.177Z,6.03
2018-07-23T13:01:35.625Z,5.40
2018-07-23T13:02:39.299Z,5.20
2018-07-23T13:03:42.755Z,5.00
2018-07-23T13:04:46.327Z,6.20
2018-07-23T13:05:49.832Z,5.30
2018-07-23T13:06:53.355Z,5.67
2018-07-23T13:07:56.759Z,5.63
2018-07-23T13:09:00.513Z,5.43
2018-07-23T13:10:05.065Z,5.27
2018-07-23T13:11:09.472Z,5.27
2018-07-23T13:12:13.251Z,5.30
2018-07-23T13:13:16.777Z,5.40
2018-07-23T13:14:20.227Z,5.17
2018-07-23T13:15:23.682Z,5.30
2018-07-23T13:16:27.078Z,5.10
2018-07-23T13:17:30.504Z,5.97
2018-07-23T13:18:33.913Z,5.33
2018-07-23T13:19:37.381Z,5.27
2018-07-23T13:20:40.801Z,5.47
2018-07-23T13:21:44.241Z,5.70
2018-07-23T13:22:48.513Z,5.27
2018-07-23T13:23:51.948Z,5.43
2018-07-23T13:24:55.614Z,5.20
2018-07-23T13:25:59.747Z,5.37
2018-07-23T13:27:03.207Z,5.40
2018-07-23T13:28:07.356Z,5.13
2018-07-23T13:29:10.928Z,5.40
2018-07-23T13:30:14.357Z,5.43
2018-07-23T13:31:17.789Z,5.77
2018-07-23T13:32:21.254Z,5.10
2018-07-23T13:33:24.674Z,5.30
2018-07-23T13:34:28.147Z,5.07
2018-07-23T13:35:31.582Z,5.03
2018-07-23T13:36:34.979Z,5.47
2018-07-23T13:37:38.516Z,6.20
2018-07-23T13:38:41.918Z,5.33
2018-07-23T13:39:45.372Z,5.37
2018-07-23T13:40:48.892Z,5.47
2018-07-23T13:41:52.323Z,5.37
2018-07-23T13:42:55.797Z,5.43
2018-07-23T13:43:59.183Z,4.57
2018-07-23T13:45:02.622Z,4.90
2018-07-23T13:46:06.096Z,5.30
2018-07-23T13:47:09.493Z,5.33
2018-07-23T13:48:12.881Z,5.20
2018-07-23T13:49:16.367Z,6.10
2018-07-23T13:50:19.861Z,5.73
2018-07-23T13:51:23.306Z,6.23
2018-07-23T13:52:26.726Z,5.47
2018-07-23T13:53:30.368Z,5.10
2018-07-23T13:54:34.054Z,5.27
2018-07-23T13:55:37.635Z,5.00
2018-07-23T13:56:41.041Z,5.40
2018-07-23T13:57:44.451Z,5.27
2018-07-23T13:58:47.857Z,4.87
2018-07-23T13:59:51.299Z,4.93
2018-07-23T14:00:55.807Z,4.77
2018-07-23T14:02:00.195Z,5.30
2018-07-23T14:03:03.635Z,4.90
2018-07-23T14:04:07.089Z,5.13
2018-07-23T14:05:11.222Z,5.30
2018-07-23T14:06:14.625Z,5.07
2018-07-23T14:07:18.174Z,5.27